sensor_id;sensor_type;location;lat;lon;timestamp;pressure;altitude;pressure_sealevel;temperature;humidity
55656;BME280;41530;52.382;5.270;2023-06-14T00:01:51;101777.44;;;25.68;33.69
55656;BME280;41530;52.382;5.270;2023-06-14T00:04:18;101776.78;;;25.66;33.83
55656;BME280;41530;52.382;5.270;2023-06-14T00:06:47;101782.53;;;25.63;33.42
55656;BME280;41530;52.382;5.270;2023-06-14T00:09:15;101783.03;;;25.58;33.23
55656;BME280;41530;52.382;5.270;2023-06-14T00:11:44;101788.94;;;25.62;33.90
55656;BME280;41530;52.382;5.270;2023-06-14T00:14:11;101790.13;;;25.59;33.30
55656;BME280;41530;52.382;5.270;2023-06-14T00:16:37;101784.91;;;25.57;33.34
55656;BME280;41530;52.382;5.270;2023-06-14T00:19:05;101781.09;;;25.52;33.59
55656;BME280;41530;52.382;5.270;2023-06-14T00:21:31;101780.78;;;25.47;32.95
55656;BME280;41530;52.382;5.270;2023-06-14T00:23:59;101785.44;;;25.38;33.00
55656;BME280;41530;52.382;5.270;2023-06-14T00:26:26;101785.00;;;25.27;33.19
55656;BME280;41530;52.382;5.270;2023-06-14T00:28:54;101784.53;;;25.23;33.62
55656;BME280;41530;52.382;5.270;2023-06-14T00:31:21;101786.91;;;25.18;33.48
55656;BME280;41530;52.382;5.270;2023-06-14T00:33:47;101791.19;;;25.12;33.64
55656;BME280;41530;52.382;5.270;2023-06-14T00:36:14;101777.97;;;25.03;33.47
55656;BME280;41530;52.382;5.270;2023-06-14T00:38:41;101782.84;;;24.99;33.87
55656;BME280;41530;52.382;5.270;2023-06-14T00:41:07;101788.41;;;24.98;33.96
55656;BME280;41530;52.382;5.270;2023-06-14T00:43:34;101782.03;;;24.91;33.81
55656;BME280;41530;52.382;5.270;2023-06-14T00:46:01;101782.41;;;24.88;33.62
55656;BME280;41530;52.382;5.270;2023-06-14T00:48:28;101780.06;;;24.84;33.86
55656;BME280;41530;52.382;5.270;2023-06-14T00:50:56;101783.75;;;24.83;33.66
55656;BME280;41530;52.382;5.270;2023-06-14T00:53:23;101785.78;;;24.81;33.88
55656;BME280;41530;52.382;5.270;2023-06-14T00:55:51;101779.06;;;24.77;34.03
55656;BME280;41530;52.382;5.270;2023-06-14T00:58:21;101785.66;;;24.75;33.93
55656;BME280;41530;52.382;5.270;2023-06-14T01:00:48;101783.31;;;24.72;34.04
55656;BME280;41530;52.382;5.270;2023-06-14T01:03:15;101782.66;;;24.70;33.83
55656;BME280;41530;52.382;5.270;2023-06-14T01:05:55;101785.69;;;24.67;34.00
55656;BME280;41530;52.382;5.270;2023-06-14T01:08:45;101785.22;;;24.63;33.91
55656;BME280;41530;52.382;5.270;2023-06-14T01:11:20;101784.38;;;24.63;34.13
55656;BME280;41530;52.382;5.270;2023-06-14T01:13:50;101794.31;;;24.62;33.98
55656;BME280;41530;52.382;5.270;2023-06-14T01:16:18;101779.19;;;24.53;33.61
55656;BME280;41530;52.382;5.270;2023-06-14T01:18:46;101783.41;;;24.56;34.14
55656;BME280;41530;52.382;5.270;2023-06-14T01:21:22;101790.78;;;24.62;34.05
55656;BME280;41530;52.382;5.270;2023-06-14T01:23:51;101793.03;;;24.50;33.71
55656;BME280;41530;52.382;5.270;2023-06-14T01:26:21;101788.84;;;24.47;33.77
55656;BME280;41530;52.382;5.270;2023-06-14T01:28:49;101791.03;;;24.44;33.74
55656;BME280;41530;52.382;5.270;2023-06-14T01:31:19;101784.00;;;24.35;33.33
55656;BME280;41530;52.382;5.270;2023-06-14T01:33:49;101783.84;;;24.28;33.31
55656;BME280;41530;52.382;5.270;2023-06-14T01:36:19;101788.38;;;24.28;33.69
55656;BME280;41530;52.382;5.270;2023-06-14T01:38:46;101792.25;;;24.25;33.59
55656;BME280;41530;52.382;5.270;2023-06-14T01:41:17;101786.72;;;24.19;33.43
55656;BME280;41530;52.382;5.270;2023-06-14T01:43:47;101788.06;;;24.14;33.61
55656;BME280;41530;52.382;5.270;2023-06-14T01:46:15;101792.09;;;24.19;33.68
55656;BME280;41530;52.382;5.270;2023-06-14T01:48:43;101788.72;;;24.16;33.51
55656;BME280;41530;52.382;5.270;2023-06-14T01:51:09;101795.78;;;24.17;33.50
55656;BME280;41530;52.382;5.270;2023-06-14T01:53:36;101787.22;;;24.14;33.40
55656;BME280;41530;52.382;5.270;2023-06-14T01:56:03;101792.28;;;24.09;33.49
55656;BME280;41530;52.382;5.270;2023-06-14T01:58:30;101787.44;;;24.04;33.54
55656;BME280;41530;52.382;5.270;2023-06-14T02:00:57;101790.13;;;24.04;33.65
55656;BME280;41530;52.382;5.270;2023-06-14T02:03:24;101789.09;;;23.97;33.33
55656;BME280;41530;52.382;5.270;2023-06-14T02:05:52;101792.84;;;23.96;33.53
55656;BME280;41530;52.382;5.270;2023-06-14T02:08:18;101796.38;;;23.89;33.53
55656;BME280;41530;52.382;5.270;2023-06-14T02:10:45;101790.34;;;23.78;33.22
55656;BME280;41530;52.382;5.270;2023-06-14T02:13:12;101795.72;;;23.78;33.51
55656;BME280;41530;52.382;5.270;2023-06-14T02:15:38;101791.84;;;23.73;33.79
55656;BME280;41530;52.382;5.270;2023-06-14T02:18:05;101788.84;;;23.68;33.63
55656;BME280;41530;52.382;5.270;2023-06-14T02:20:32;101784.47;;;23.67;33.54
55656;BME280;41530;52.382;5.270;2023-06-14T02:22:59;101786.50;;;23.65;34.07
55656;BME280;41530;52.382;5.270;2023-06-14T02:25:25;101793.72;;;23.64;33.63
55656;BME280;41530;52.382;5.270;2023-06-14T02:27:54;101791.88;;;23.57;33.53
55656;BME280;41530;52.382;5.270;2023-06-14T02:30:21;101795.34;;;23.49;33.93
55656;BME280;41530;52.382;5.270;2023-06-14T02:32:48;101792.00;;;23.47;34.20
55656;BME280;41530;52.382;5.270;2023-06-14T02:35:17;101793.50;;;23.50;33.82
55656;BME280;41530;52.382;5.270;2023-06-14T02:37:44;101791.31;;;23.45;34.08
55656;BME280;41530;52.382;5.270;2023-06-14T02:40:11;101794.19;;;23.43;34.09
55656;BME280;41530;52.382;5.270;2023-06-14T02:42:38;101797.72;;;23.36;33.94
55656;BME280;41530;52.382;5.270;2023-06-14T02:45:05;101791.16;;;23.30;34.05
55656;BME280;41530;52.382;5.270;2023-06-14T02:47:32;101800.88;;;23.31;34.28
55656;BME280;41530;52.382;5.270;2023-06-14T02:49:59;101797.56;;;23.29;33.77
55656;BME280;41530;52.382;5.270;2023-06-14T02:52:25;101795.19;;;23.26;33.77
55656;BME280;41530;52.382;5.270;2023-06-14T02:54:52;101794.69;;;23.23;34.26
55656;BME280;41530;52.382;5.270;2023-06-14T02:57:21;101796.19;;;23.25;34.37
55656;BME280;41530;52.382;5.270;2023-06-14T02:59:48;101796.34;;;23.24;34.37
55656;BME280;41530;52.382;5.270;2023-06-14T03:02:15;101801.41;;;23.27;34.11
55656;BME280;41530;52.382;5.270;2023-06-14T03:04:42;101808.63;;;23.26;34.36
55656;BME280;41530;52.382;5.270;2023-06-14T03:07:11;101811.81;;;23.30;34.33
55656;BME280;41530;52.382;5.270;2023-06-14T03:09:39;101808.44;;;23.28;34.16
55656;BME280;41530;52.382;5.270;2023-06-14T03:12:06;101808.63;;;23.26;34.55
55656;BME280;41530;52.382;5.270;2023-06-14T03:14:33;101810.63;;;23.32;34.06
55656;BME280;41530;52.382;5.270;2023-06-14T03:17:02;101814.50;;;23.30;34.33
55656;BME280;41530;52.382;5.270;2023-06-14T03:19:29;101818.50;;;23.26;34.17
55656;BME280;41530;52.382;5.270;2023-06-14T03:21:56;101823.03;;;23.25;34.12
55656;BME280;41530;52.382;5.270;2023-06-14T03:24:25;101822.00;;;23.18;33.77
55656;BME280;41530;52.382;5.270;2023-06-14T03:26:55;101821.38;;;23.16;34.33
55656;BME280;41530;52.382;5.270;2023-06-14T03:29:23;101830.06;;;23.18;34.48
55656;BME280;41530;52.382;5.270;2023-06-14T03:31:58;101831.75;;;23.19;34.80
55656;BME280;41530;52.382;5.270;2023-06-14T03:34:25;101826.72;;;23.16;34.44
55656;BME280;41530;52.382;5.270;2023-06-14T03:36:51;101837.13;;;23.19;34.30
55656;BME280;41530;52.382;5.270;2023-06-14T03:39:18;101836.28;;;23.19;34.38
55656;BME280;41530;52.382;5.270;2023-06-14T03:41:46;101832.59;;;23.20;34.46
55656;BME280;41530;52.382;5.270;2023-06-14T03:44:15;101838.78;;;23.20;34.45
55656;BME280;41530;52.382;5.270;2023-06-14T03:46:43;101843.31;;;23.20;34.49
55656;BME280;41530;52.382;5.270;2023-06-14T03:49:10;101845.53;;;23.16;34.72
55656;BME280;41530;52.382;5.270;2023-06-14T03:51:37;101842.63;;;23.09;34.85
55656;BME280;41530;52.382;5.270;2023-06-14T03:54:04;101851.69;;;23.08;34.05
55656;BME280;41530;52.382;5.270;2023-06-14T03:56:51;101845.81;;;23.05;34.58
55656;BME280;41530;52.382;5.270;2023-06-14T03:59:17;101850.31;;;22.96;34.13
55656;BME280;41530;52.382;5.270;2023-06-14T04:01:44;101848.97;;;22.92;34.91
55656;BME280;41530;52.382;5.270;2023-06-14T04:04:13;101852.00;;;22.89;34.64
55656;BME280;41530;52.382;5.270;2023-06-14T04:06:39;101853.00;;;22.88;34.94
55656;BME280;41530;52.382;5.270;2023-06-14T04:09:08;101861.19;;;22.87;34.71
55656;BME280;41530;52.382;5.270;2023-06-14T04:11:35;101866.88;;;22.84;34.57
55656;BME280;41530;52.382;5.270;2023-06-14T04:14:01;101871.56;;;22.82;35.11
55656;BME280;41530;52.382;5.270;2023-06-14T04:16:28;101869.81;;;22.72;34.81
55656;BME280;41530;52.382;5.270;2023-06-14T04:18:55;101866.94;;;22.66;35.44
55656;BME280;41530;52.382;5.270;2023-06-14T04:21:24;101872.66;;;22.63;34.76
55656;BME280;41530;52.382;5.270;2023-06-14T04:23:54;101869.75;;;22.56;35.05
55656;BME280;41530;52.382;5.270;2023-06-14T04:26:22;101868.03;;;22.47;35.06
55656;BME280;41530;52.382;5.270;2023-06-14T04:28:52;101871.91;;;22.53;35.25
55656;BME280;41530;52.382;5.270;2023-06-14T04:31:19;101881.78;;;22.52;35.43
55656;BME280;41530;52.382;5.270;2023-06-14T04:33:47;101885.28;;;22.45;35.81
55656;BME280;41530;52.382;5.270;2023-06-14T04:36:17;101879.38;;;22.41;35.78
55656;BME280;41530;52.382;5.270;2023-06-14T04:38:44;101881.22;;;22.40;35.64
55656;BME280;41530;52.382;5.270;2023-06-14T04:41:15;101886.09;;;22.37;35.78
55656;BME280;41530;52.382;5.270;2023-06-14T04:43:42;101881.88;;;22.34;35.24
55656;BME280;41530;52.382;5.270;2023-06-14T04:46:09;101887.59;;;22.39;36.20
55656;BME280;41530;52.382;5.270;2023-06-14T04:48:39;101895.97;;;22.36;35.68
55656;BME280;41530;52.382;5.270;2023-06-14T04:51:10;101882.56;;;22.36;35.52
55656;BME280;41530;52.382;5.270;2023-06-14T04:53:37;101896.81;;;22.37;35.74
55656;BME280;41530;52.382;5.270;2023-06-14T04:56:04;101899.50;;;22.37;35.66
55656;BME280;41530;52.382;5.270;2023-06-14T04:58:30;101890.25;;;22.39;35.79
55656;BME280;41530;52.382;5.270;2023-06-14T05:00:59;101896.47;;;22.40;35.57
55656;BME280;41530;52.382;5.270;2023-06-14T05:03:28;101890.25;;;22.39;35.80
55656;BME280;41530;52.382;5.270;2023-06-14T05:05:57;101903.22;;;22.44;35.91
55656;BME280;41530;52.382;5.270;2023-06-14T05:08:24;101905.28;;;22.50;35.69
55656;BME280;41530;52.382;5.270;2023-06-14T05:10:50;101894.88;;;22.55;35.98
55656;BME280;41530;52.382;5.270;2023-06-14T05:13:17;101895.25;;;22.60;35.44
55656;BME280;41530;52.382;5.270;2023-06-14T05:15:44;101901.31;;;22.62;35.77
55656;BME280;41530;52.382;5.270;2023-06-14T05:18:11;101893.44;;;22.69;35.38
55656;BME280;41530;52.382;5.270;2023-06-14T05:20:40;101892.97;;;22.73;35.69
55656;BME280;41530;52.382;5.270;2023-06-14T05:23:09;101902.25;;;22.79;35.38
55656;BME280;41530;52.382;5.270;2023-06-14T05:25:45;101899.09;;;22.84;35.75
55656;BME280;41530;52.382;5.270;2023-06-14T05:28:12;101890.41;;;22.90;35.35
55656;BME280;41530;52.382;5.270;2023-06-14T05:30:39;101896.25;;;22.93;35.71
55656;BME280;41530;52.382;5.270;2023-06-14T05:33:09;101904.53;;;23.00;35.24
55656;BME280;41530;52.382;5.270;2023-06-14T05:35:36;101896.16;;;23.03;35.33
55656;BME280;41530;52.382;5.270;2023-06-14T05:38:04;101899.47;;;23.05;35.35
55656;BME280;41530;52.382;5.270;2023-06-14T05:40:32;101895.66;;;23.07;35.68
55656;BME280;41530;52.382;5.270;2023-06-14T05:42:58;101892.63;;;23.10;35.06
55656;BME280;41530;52.382;5.270;2023-06-14T05:45:25;101894.50;;;23.18;35.48
55656;BME280;41530;52.382;5.270;2023-06-14T05:47:52;101906.28;;;23.25;35.23
55656;BME280;41530;52.382;5.270;2023-06-14T05:50:21;101910.31;;;23.29;35.31
55656;BME280;41530;52.382;5.270;2023-06-14T05:52:47;101914.66;;;23.30;35.31
55656;BME280;41530;52.382;5.270;2023-06-14T05:55:16;101915.69;;;23.29;34.82
55656;BME280;41530;52.382;5.270;2023-06-14T05:57:43;101912.31;;;23.27;35.00
55656;BME280;41530;52.382;5.270;2023-06-14T06:00:10;101916.19;;;23.25;35.15
55656;BME280;41530;52.382;5.270;2023-06-14T06:02:43;101915.50;;;23.23;35.13
55656;BME280;41530;52.382;5.270;2023-06-14T06:05:11;101921.38;;;23.26;35.00
55656;BME280;41530;52.382;5.270;2023-06-14T06:07:39;101923.75;;;23.29;35.18
55656;BME280;41530;52.382;5.270;2023-06-14T06:10:07;101926.44;;;23.29;34.87
55656;BME280;41530;52.382;5.270;2023-06-14T06:12:33;101934.66;;;23.28;35.27
55656;BME280;41530;52.382;5.270;2023-06-14T06:15:00;101935.66;;;23.27;34.96
55656;BME280;41530;52.382;5.270;2023-06-14T06:17:27;101935.13;;;23.23;34.91
55656;BME280;41530;52.382;5.270;2023-06-14T06:20:05;101944.03;;;23.24;34.95
55656;BME280;41530;52.382;5.270;2023-06-14T06:22:36;101946.38;;;23.27;35.24
55656;BME280;41530;52.382;5.270;2023-06-14T06:25:03;101937.34;;;23.28;35.29
55656;BME280;41530;52.382;5.270;2023-06-14T06:27:30;101936.34;;;23.29;35.09
55656;BME280;41530;52.382;5.270;2023-06-14T06:29:56;101932.28;;;23.33;35.49
55656;BME280;41530;52.382;5.270;2023-06-14T06:32:23;101944.25;;;23.38;35.32
55656;BME280;41530;52.382;5.270;2023-06-14T06:34:50;101939.88;;;23.45;35.52
55656;BME280;41530;52.382;5.270;2023-06-14T06:37:18;101944.78;;;23.50;35.12
55656;BME280;41530;52.382;5.270;2023-06-14T06:39:44;101951.53;;;23.54;35.30
55656;BME280;41530;52.382;5.270;2023-06-14T06:42:12;101945.16;;;23.55;35.21
55656;BME280;41530;52.382;5.270;2023-06-14T06:44:38;101949.19;;;23.59;34.96
55656;BME280;41530;52.382;5.270;2023-06-14T06:47:05;101947.16;;;23.61;35.07
55656;BME280;41530;52.382;5.270;2023-06-14T06:49:32;101950.38;;;23.65;35.19
55656;BME280;41530;52.382;5.270;2023-06-14T06:52:03;101955.75;;;23.65;34.73
55656;BME280;41530;52.382;5.270;2023-06-14T06:54:31;101954.59;;;23.67;35.30
55656;BME280;41530;52.382;5.270;2023-06-14T06:56:58;101958.44;;;23.73;35.04
55656;BME280;41530;52.382;5.270;2023-06-14T06:59:25;101967.84;;;23.77;34.99
55656;BME280;41530;52.382;5.270;2023-06-14T07:01:51;101960.78;;;23.84;35.04
55656;BME280;41530;52.382;5.270;2023-06-14T07:04:20;101959.94;;;23.84;34.71
55656;BME280;41530;52.382;5.270;2023-06-14T07:06:47;101961.81;;;23.91;34.70
55656;BME280;41530;52.382;5.270;2023-06-14T07:09:14;101965.19;;;23.93;34.97
55656;BME280;41530;52.382;5.270;2023-06-14T07:11:45;101963.19;;;23.95;34.74
55656;BME280;41530;52.382;5.270;2023-06-14T07:14:12;101956.44;;;23.99;34.88
55656;BME280;41530;52.382;5.270;2023-06-14T07:16:39;101972.75;;;24.06;34.93
55656;BME280;41530;52.382;5.270;2023-06-14T07:19:05;101966.69;;;24.12;35.09
55656;BME280;41530;52.382;5.270;2023-06-14T07:21:32;101963.50;;;24.16;34.89
55656;BME280;41530;52.382;5.270;2023-06-14T07:23:59;101963.19;;;24.20;34.63
55656;BME280;41530;52.382;5.270;2023-06-14T07:26:25;101967.72;;;24.19;34.54
55656;BME280;41530;52.382;5.270;2023-06-14T07:28:52;101971.78;;;24.23;33.70
55656;BME280;41530;52.382;5.270;2023-06-14T07:31:19;101981.50;;;24.24;33.78
55656;BME280;41530;52.382;5.270;2023-06-14T07:33:46;101978.50;;;24.27;33.77
55656;BME280;41530;52.382;5.270;2023-06-14T07:36:13;101984.53;;;24.29;33.59
55656;BME280;41530;52.382;5.270;2023-06-14T07:38:40;101983.19;;;24.33;33.84
55656;BME280;41530;52.382;5.270;2023-06-14T07:41:07;101981.00;;;24.37;33.70
55656;BME280;41530;52.382;5.270;2023-06-14T07:43:34;101986.22;;;24.38;33.50
55656;BME280;41530;52.382;5.270;2023-06-14T07:46:01;101990.09;;;24.44;33.05
55656;BME280;41530;52.382;5.270;2023-06-14T07:48:34;101981.00;;;24.45;33.20
55656;BME280;41530;52.382;5.270;2023-06-14T07:51:01;101978.81;;;24.48;33.35
55656;BME280;41530;52.382;5.270;2023-06-14T07:53:28;101976.78;;;24.50;33.29
55656;BME280;41530;52.382;5.270;2023-06-14T07:55:54;101987.03;;;24.55;33.07
55656;BME280;41530;52.382;5.270;2023-06-14T07:58:21;101981.16;;;24.60;33.01
55656;BME280;41530;52.382;5.270;2023-06-14T08:00:48;101975.25;;;24.56;32.64
55656;BME280;41530;52.382;5.270;2023-06-14T08:03:14;101997.94;;;24.70;32.90
55656;BME280;41530;52.382;5.270;2023-06-14T08:05:42;101988.69;;;24.72;32.71
55656;BME280;41530;52.382;5.270;2023-06-14T08:08:08;101988.69;;;24.72;32.71
55656;BME280;41530;52.382;5.270;2023-06-14T08:10:35;101995.06;;;24.79;32.81
55656;BME280;41530;52.382;5.270;2023-06-14T08:13:02;101999.75;;;24.85;32.33
55656;BME280;41530;52.382;5.270;2023-06-14T08:15:28;102005.81;;;24.88;32.24
55656;BME280;41530;52.382;5.270;2023-06-14T08:17:55;101995.72;;;24.90;32.10
55656;BME280;41530;52.382;5.270;2023-06-14T08:20:22;101992.00;;;24.91;31.86
55656;BME280;41530;52.382;5.270;2023-06-14T08:22:49;101995.88;;;24.96;32.03
55656;BME280;41530;52.382;5.270;2023-06-14T08:25:16;101994.03;;;24.97;31.78
55656;BME280;41530;52.382;5.270;2023-06-14T08:27:43;101995.00;;;25.04;31.74
55656;BME280;41530;52.382;5.270;2023-06-14T08:30:10;101995.00;;;25.04;31.88
55656;BME280;41530;52.382;5.270;2023-06-14T08:32:37;102001.75;;;25.08;31.62
55656;BME280;41530;52.382;5.270;2023-06-14T08:35:04;101991.13;;;25.06;31.14
55656;BME280;41530;52.382;5.270;2023-06-14T08:37:32;102007.44;;;25.13;31.47
55656;BME280;41530;52.382;5.270;2023-06-14T08:40:00;101999.38;;;25.13;31.13
55656;BME280;41530;52.382;5.270;2023-06-14T08:42:30;101994.00;;;25.13;31.00
55656;BME280;41530;52.382;5.270;2023-06-14T08:44:58;101994.66;;;25.15;30.81
55656;BME280;41530;52.382;5.270;2023-06-14T08:47:27;102002.34;;;25.18;31.05
55656;BME280;41530;52.382;5.270;2023-06-14T08:49:57;101996.13;;;25.17;30.92
55656;BME280;41530;52.382;5.270;2023-06-14T08:52:25;101990.22;;;25.22;31.30
55656;BME280;41530;52.382;5.270;2023-06-14T08:54:56;101995.63;;;25.22;30.70
55656;BME280;41530;52.382;5.270;2023-06-14T08:57:24;101993.25;;;25.27;30.65
55656;BME280;41530;52.382;5.270;2023-06-14T08:59:52;101991.88;;;25.31;30.98
55656;BME280;41530;52.382;5.270;2023-06-14T09:02:20;101993.53;;;25.32;30.82
55656;BME280;41530;52.382;5.270;2023-06-14T09:04:48;101993.22;;;25.35;30.57
55656;BME280;41530;52.382;5.270;2023-06-14T09:07:18;102002.63;;;25.39;30.30
55656;BME280;41530;52.382;5.270;2023-06-14T09:09:45;101992.69;;;25.40;30.51
55656;BME280;41530;52.382;5.270;2023-06-14T09:12:31;102003.94;;;25.43;30.57
55656;BME280;41530;52.382;5.270;2023-06-14T09:14:58;102003.41;;;25.48;30.73
55656;BME280;41530;52.382;5.270;2023-06-14T09:17:26;102001.56;;;25.48;30.34
55656;BME280;41530;52.382;5.270;2023-06-14T09:19:55;101997.34;;;25.54;30.41
55656;BME280;41530;52.382;5.270;2023-06-14T09:22:22;102010.44;;;25.57;30.37
55656;BME280;41530;52.382;5.270;2023-06-14T09:24:48;102017.50;;;25.58;29.38
55656;BME280;41530;52.382;5.270;2023-06-14T09:27:15;102006.53;;;25.60;29.85
55656;BME280;41530;52.382;5.270;2023-06-14T09:29:42;102009.94;;;25.62;29.92
55656;BME280;41530;52.382;5.270;2023-06-14T09:32:09;102009.75;;;25.63;30.18
55656;BME280;41530;52.382;5.270;2023-06-14T09:34:36;102003.00;;;25.67;30.11
55656;BME280;41530;52.382;5.270;2023-06-14T09:37:03;102000.78;;;25.71;30.51
55656;BME280;41530;52.382;5.270;2023-06-14T09:39:31;102006.13;;;25.79;30.60
55656;BME280;41530;52.382;5.270;2023-06-14T09:41:57;102008.09;;;25.85;30.10
55656;BME280;41530;52.382;5.270;2023-06-14T09:44:25;102014.66;;;25.90;30.02
55656;BME280;41530;52.382;5.270;2023-06-14T09:46:56;102009.75;;;25.94;30.43
55656;BME280;41530;52.382;5.270;2023-06-14T09:49:22;102018.94;;;26.00;30.01
55656;BME280;41530;52.382;5.270;2023-06-14T09:51:51;102014.72;;;26.05;29.82
55656;BME280;41530;52.382;5.270;2023-06-14T09:54:22;102012.69;;;26.07;29.47
55656;BME280;41530;52.382;5.270;2023-06-14T09:56:51;102011.94;;;26.13;29.49
55656;BME280;41530;52.382;5.270;2023-06-14T09:59:22;102007.03;;;26.17;29.49
55656;BME280;41530;52.382;5.270;2023-06-14T10:01:57;102012.91;;;26.20;28.86
55656;BME280;41530;52.382;5.270;2023-06-14T10:04:27;102010.03;;;26.22;29.20
55656;BME280;41530;52.382;5.270;2023-06-14T10:06:57;102009.47;;;26.26;29.17
55656;BME280;41530;52.382;5.270;2023-06-14T10:09:24;102001.56;;;26.25;28.91
55656;BME280;41530;52.382;5.270;2023-06-14T10:11:51;102006.09;;;26.33;29.08
55656;BME280;41530;52.382;5.270;2023-06-14T10:14:18;102007.59;;;26.35;28.77
55656;BME280;41530;52.382;5.270;2023-06-14T10:17:08;102005.34;;;26.39;27.93
55656;BME280;41530;52.382;5.270;2023-06-14T10:19:48;101999.28;;;26.37;28.40
55656;BME280;41530;52.382;5.270;2023-06-14T10:22:39;102002.94;;;26.44;28.76
55656;BME280;41530;52.382;5.270;2023-06-14T10:25:12;101997.66;;;26.50;28.83
55656;BME280;41530;52.382;5.270;2023-06-14T10:27:44;101992.72;;;26.54;28.71
55656;BME280;41530;52.382;5.270;2023-06-14T10:30:14;101988.09;;;26.48;29.02
55656;BME280;41530;52.382;5.270;2023-06-14T10:33:04;102003.81;;;26.59;28.80
55656;BME280;41530;52.382;5.270;2023-06-14T10:35:33;101994.53;;;26.61;29.79
55656;BME280;41530;52.382;5.270;2023-06-14T10:38:11;102000.38;;;26.65;28.94
55656;BME280;41530;52.382;5.270;2023-06-14T10:40:39;102001.22;;;26.66;29.26
55656;BME280;41530;52.382;5.270;2023-06-14T10:43:23;102000.19;;;26.67;28.73
55656;BME280;41530;52.382;5.270;2023-06-14T10:46:13;101995.63;;;26.67;28.54
55656;BME280;41530;52.382;5.270;2023-06-14T10:48:41;102003.38;;;26.70;29.02
55656;BME280;41530;52.382;5.270;2023-06-14T10:51:20;102003.53;;;26.69;29.00
55656;BME280;41530;52.382;5.270;2023-06-14T10:53:48;101999.66;;;26.71;29.18
55656;BME280;41530;52.382;5.270;2023-06-14T10:56:29;101993.22;;;26.72;28.51
55656;BME280;41530;52.382;5.270;2023-06-14T10:58:57;102008.41;;;26.73;28.94
55656;BME280;41530;52.382;5.270;2023-06-14T11:04:52;101979.16;;;26.62;28.18
55656;BME280;41530;52.382;5.270;2023-06-14T11:12:36;101996.09;;;26.71;28.36
55656;BME280;41530;52.382;5.270;2023-06-14T11:15:05;101978.03;;;26.71;28.35
55656;BME280;41530;52.382;5.270;2023-06-14T11:17:33;101984.66;;;26.69;28.48
55656;BME280;41530;52.382;5.270;2023-06-14T11:22:41;101990.22;;;26.67;28.22
55656;BME280;41530;52.382;5.270;2023-06-14T11:25:09;101991.72;;;26.70;28.26
55656;BME280;41530;52.382;5.270;2023-06-14T11:27:36;101995.25;;;26.70;28.29
55656;BME280;41530;52.382;5.270;2023-06-14T11:30:06;101995.09;;;26.72;28.33
55656;BME280;41530;52.382;5.270;2023-06-14T11:32:33;101996.75;;;26.73;27.80
55656;BME280;41530;52.382;5.270;2023-06-14T11:35:00;101994.91;;;26.73;27.49
55656;BME280;41530;52.382;5.270;2023-06-14T11:37:27;101988.09;;;26.77;28.12
55656;BME280;41530;52.382;5.270;2023-06-14T11:39:58;101981.03;;;26.76;27.27
55656;BME280;41530;52.382;5.270;2023-06-14T11:42:29;101988.56;;;26.81;27.58
55656;BME280;41530;52.382;5.270;2023-06-14T11:44:56;101988.38;;;26.82;27.72
55656;BME280;41530;52.382;5.270;2023-06-14T11:47:35;101977.59;;;26.82;28.00
55656;BME280;41530;52.382;5.270;2023-06-14T11:50:04;101982.81;;;26.84;28.11
55656;BME280;41530;52.382;5.270;2023-06-14T11:52:31;101981.78;;;26.85;27.70
55656;BME280;41530;52.382;5.270;2023-06-14T11:54:58;101970.97;;;26.85;28.17
55656;BME280;41530;52.382;5.270;2023-06-14T11:57:25;101964.91;;;26.83;28.23
55656;BME280;41530;52.382;5.270;2023-06-14T11:59:54;101974.16;;;26.88;27.83
55656;BME280;41530;52.382;5.270;2023-06-14T12:02:21;101976.84;;;26.88;27.65
55656;BME280;41530;52.382;5.270;2023-06-14T12:04:50;101975.44;;;26.92;28.23
55656;BME280;41530;52.382;5.270;2023-06-14T12:07:18;101964.47;;;26.94;28.42
55656;BME280;41530;52.382;5.270;2023-06-14T12:12:26;101971.66;;;27.02;27.86
55656;BME280;41530;52.382;5.270;2023-06-14T12:14:53;101978.34;;;27.06;27.11
55656;BME280;41530;52.382;5.270;2023-06-14T12:17:22;101983.75;;;27.06;27.26
55656;BME280;41530;52.382;5.270;2023-06-14T12:19:49;101983.56;;;27.07;27.95
55656;BME280;41530;52.382;5.270;2023-06-14T12:22:16;101969.41;;;27.05;28.06
55656;BME280;41530;52.382;5.270;2023-06-14T12:24:44;101969.88;;;27.09;27.96
55656;BME280;41530;52.382;5.270;2023-06-14T12:27:11;101975.94;;;27.11;27.38
55656;BME280;41530;52.382;5.270;2023-06-14T12:29:43;101974.91;;;27.12;27.73
55656;BME280;41530;52.382;5.270;2023-06-14T12:32:10;101986.81;;;27.17;27.32
55656;BME280;41530;52.382;5.270;2023-06-14T12:34:37;101984.94;;;27.18;27.26
55656;BME280;41530;52.382;5.270;2023-06-14T12:37:04;101987.84;;;27.16;27.37
55656;BME280;41530;52.382;5.270;2023-06-14T12:39:31;101984.31;;;27.16;27.32
55656;BME280;41530;52.382;5.270;2023-06-14T12:41:57;101976.59;;;27.13;27.25
55656;BME280;41530;52.382;5.270;2023-06-14T12:44:24;101973.41;;;27.09;27.21
55656;BME280;41530;52.382;5.270;2023-06-14T12:46:51;101974.06;;;27.11;27.14
55656;BME280;41530;52.382;5.270;2023-06-14T12:49:20;101967.53;;;27.06;27.11
55656;BME280;41530;52.382;5.270;2023-06-14T12:51:47;101973.78;;;27.06;27.02
55656;BME280;41530;52.382;5.270;2023-06-14T12:54:13;101967.72;;;27.04;27.14
55656;BME280;41530;52.382;5.270;2023-06-14T12:56:45;101970.63;;;27.03;27.19
55656;BME280;41530;52.382;5.270;2023-06-14T12:59:12;101974.81;;;27.05;27.39
55656;BME280;41530;52.382;5.270;2023-06-14T13:01:39;101975.47;;;27.07;27.47
55656;BME280;41530;52.382;5.270;2023-06-14T13:04:06;101972.94;;;27.06;27.14
55656;BME280;41530;52.382;5.270;2023-06-14T13:06:33;101961.28;;;27.05;26.92
55656;BME280;41530;52.382;5.270;2023-06-14T13:09:00;101972.38;;;27.10;27.52
55656;BME280;41530;52.382;5.270;2023-06-14T13:11:27;101974.06;;;27.11;27.04